Campbell River Airport
CYBL : now visible

Airfield :











YOU CAN JOIN US ON...

 
LOGIN :

Register | Disclaimer

   EN    FR    IT 

 









Legend :    VFR   Marginal VFR   IFR   Intensive IFR   Very Intensive IFR
Visi :
Ceiling :
>= 8 km
>= 3000ft
5 to 8 km
1000 to 3000 ft
1500m to 5 km
500 to 1000 ft
800 to 1500m
200 to 500 ft
< 800m
< 200 ft
Symbols :   Thunderstorms  Fog  Heavy snow  Heavy precipitations  Wind > 20 kt






- Airport Elevation : 346 ft
- IATA code : YBL


CYBL - Campbell River

CURRENT METAR :
  • 162300Z 34009KT 300V020 30SM BKN065 BKN110 BKN250 18/06 A2999 RMK CU5AC1CI1 SLP159 DENSITY ALT 700FT

EXPIRED METARs :
  • 162200Z 34005KT 310V040 30SM BKN065 BKN110 BKN250 17/07 A3001 RMK CU5AC1CI1 SLP165 DENSITY ALT 700FT
  • 162100Z VRB04KT 30SM BKN050 BKN110 BKN240 16/08 A3002 RMK CU5AC1CI1 SLP169
  • 162000Z 33005KT 30SM FEW035 SCT052 SCT110 14/06 A3003 RMK CU1SC5AC1 SLP173
  • 161900Z VRB05KT 30SM SCT035 BKN055 BKN110 15/06 A3003 RMK CU3SC2AC2 SLP172

TAF TAF CYBL
Valid from the 16 at 19:00 until the 17 at 04:00 UTC


161840Z 1619/1704 36008KT P6SM SCT030 BKN060
TEMPO 1619/1622 BKN030
FM162200 36008KT P6SM SCT040 RMK NXT FCST BY 170100Z
CZVR FIR / North America



MET'MAP, your aeronautical weather chart ! - Copyright ORBIFLY December 2007 - Disclaimer

ORBIFLY MET'MAP TEAM :

Programming & Development : Alexandra Zaïnal
Original concept : Baudouin d'Aumeries
Technical & hardware support : Manuel Goepfert
Assistance : Marc-Olivier Méhu




SOURCES & CREDITS :

   NOAA       Earth
Advisory